Time;durP1;ratioP1;P1;durP2;ratioP2;P2;SDS_P1;SDS_P2;PMS_P1;PMS_P2;Temp;Humidity;BMP_temperature;BMP_pressure;BME280_temperature;BME280_humidity;BME280_pressure;Samples;Min_cycle;Max_cycle;Signal;HPM_P1;HPM_P2
2024/02/04 00:00:07;;;;;;;41.33;18.30;;;;;;;11.14;100.00;102550.13;5290989;27;20036;-77
2024/02/04 00:02:38;;;;;;;44.55;17.80;;;;;;;11.12;100.00;102544.03;5294463;27;20415;-77
2024/02/04 00:05:08;;;;;;;42.83;17.15;;;;;;;11.13;100.00;102545.72;5296437;27;20073;-79
2024/02/04 00:07:39;;;;;;;42.40;17.83;;;;;;;11.13;100.00;102553.78;5288262;27;20043;-77
2024/02/04 00:10:09;;;;;;;39.10;17.92;;;;;;;11.11;100.00;102547.69;5292627;27;20035;-77
2024/02/04 00:12:40;;;;;;;35.33;16.70;;;;;;;11.14;100.00;102546.56;5295047;27;20499;-79
2024/02/04 00:15:11;;;;;;;41.00;17.65;;;;;;;11.13;100.00;102548.41;5293701;27;20395;-77
2024/02/04 00:17:41;;;;;;;39.40;17.08;;;;;;;11.15;100.00;102549.16;5289340;27;20035;-77
2024/02/04 00:20:12;;;;;;;36.15;15.50;;;;;;;11.06;100.00;102541.84;5289724;27;20084;-76
2024/02/04 00:22:42;;;;;;;33.78;16.73;;;;;;;11.10;100.00;102554.06;5292614;27;20057;-79
2024/02/04 00:25:14;;;;;;;34.63;16.25;;;;;;;11.15;100.00;102551.84;5293001;27;20031;-77
2024/02/04 00:27:45;;;;;;;42.10;15.68;;;;;;;11.08;100.00;102541.72;5289852;27;20026;-77
2024/02/04 00:30:15;;;;;;;33.22;16.23;;;;;;;11.14;100.00;102544.75;5287666;27;20019;-77
2024/02/04 00:32:46;;;;;;;35.97;16.95;;;;;;;11.06;100.00;102544.53;5291595;27;20236;-76
2024/02/04 00:35:16;;;;;;;35.95;15.25;;;;;;;11.14;100.00;102550.13;5286337;27;20028;-79
2024/02/04 00:37:47;;;;;;;39.67;16.55;;;;;;;11.14;100.00;102549.25;5292113;27;20507;-77
2024/02/04 00:40:17;;;;;;;37.90;16.00;;;;;;;11.08;100.00;102542.56;5291679;27;20031;-77
2024/02/04 00:42:48;;;;;;;38.45;14.93;;;;;;;11.11;100.00;102534.28;5293202;27;20023;-77
2024/02/04 00:45:18;;;;;;;32.72;15.27;;;;;;;11.19;100.00;102538.13;5289395;27;20031;-78
2024/02/04 00:47:49;;;;;;;33.60;14.75;;;;;;;11.15;100.00;102543.78;5290113;27;20019;-78
2024/02/04 00:50:19;;;;;;;38.50;15.70;;;;;;;11.23;100.00;102540.44;5285355;27;20397;-77
2024/02/04 00:52:53;;;;;;;42.40;15.80;;;;;;;11.13;100.00;102545.72;5291793;27;20038;-77
2024/02/04 00:55:23;;;;;;;40.60;15.10;;;;;;;11.19;100.00;102546.19;5291511;27;20489;-76
2024/02/04 00:57:55;;;;;;;38.35;15.65;;;;;;;11.19;100.00;102546.19;5288144;27;20022;-76
2024/02/04 01:00:25;;;;;;;32.08;15.85;;;;;;;11.20;100.00;102547.91;5284723;27;20024;-76
2024/02/04 01:02:56;;;;;;;36.95;15.90;;;;;;;11.25;100.00;102551.06;5291540;27;20493;-77
2024/02/04 01:05:27;;;;;;;34.53;13.95;;;;;;;11.19;100.00;102554.25;5294249;27;20031;-76
2024/02/04 01:07:57;;;;;;;39.78;14.95;;;;;;;11.20;100.00;102545.22;5285768;28;20019;-79
2024/02/04 01:10:27;;;;;;;34.85;15.45;;;;;;;11.26;100.00;102545.56;5288665;27;20091;-77
2024/02/04 01:12:58;;;;;;;39.53;14.43;;;;;;;11.23;100.00;102539.59;5288036;27;20105;-77
2024/02/04 01:15:29;;;;;;;37.63;13.88;;;;;;;11.33;100.00;102544.03;5287836;27;20528;-77
2024/02/04 01:17:59;;;;;;;35.08;14.98;;;;;;;11.33;100.00;102535.97;5288368;27;20019;-77
2024/02/04 01:20:30;;;;;;;40.00;13.55;;;;;;;11.28;100.00;102532.00;5280696;28;20050;-77
2024/02/04 01:23:00;;;;;;;42.38;15.43;;;;;;;11.29;100.00;102529.16;5290147;27;20066;-77
2024/02/04 01:25:31;;;;;;;40.97;14.75;;;;;;;11.31;100.00;102527.22;5289654;27;20041;-77
2024/02/04 01:28:01;;;;;;;35.83;13.38;;;;;;;11.31;100.00;102513.78;5287775;27;20384;-79
2024/02/04 01:30:32;;;;;;;34.35;14.30;;;;;;;11.34;100.00;102513.50;5286211;28;20030;-77
2024/02/04 01:33:03;;;;;;;39.03;15.20;;;;;;;11.32;100.00;102520.00;5287066;28;20107;-77
2024/02/04 01:35:33;;;;;;;34.22;15.38;;;;;;;11.31;100.00;102519.16;5286957;27;20032;-77
2024/02/04 01:38:04;;;;;;;40.92;15.05;;;;;;;11.35;100.00;102519.75;5288082;27;20469;-78
2024/02/04 01:40:34;;;;;;;37.60;13.70;;;;;;;11.34;100.00;102518.03;5288436;27;20035;-77
2024/02/04 01:43:05;;;;;;;33.17;13.82;;;;;;;11.35;100.00;102525.13;5279038;28;20037;-77
2024/02/04 01:45:36;;;;;;;39.45;15.27;;;;;;;11.36;100.00;102530.38;5291585;27;20106;-78
2024/02/04 01:48:07;;;;;;;39.25;15.02;;;;;;;11.37;100.00;102528.53;5284997;28;20141;-78
2024/02/04 01:50:37;;;;;;;35.60;14.57;;;;;;;11.34;100.00;102528.78;5291821;27;20031;-79
2024/02/04 01:53:08;;;;;;;35.20;13.05;;;;;;;11.30;100.00;102532.72;5287417;28;20489;-77
2024/02/04 01:55:39;;;;;;;43.90;15.05;;;;;;;11.37;100.00;102537.44;5286872;28;20077;-76
2024/02/04 01:58:09;;;;;;;33.70;13.32;;;;;;;11.36;100.00;102538.41;5287211;27;20037;-77
2024/02/04 02:00:40;;;;;;;35.50;14.10;;;;;;;11.37;100.00;102528.53;5288573;27;20050;-79
2024/02/04 02:03:12;;;;;;;28.70;12.07;;;;;;;11.41;100.00;102532.66;5287584;28;20027;-76
2024/02/04 02:05:43;;;;;;;33.63;14.02;;;;;;;11.31;100.00;102532.59;5300922;27;20046;-77
2024/02/04 02:08:21;;;;;;;37.47;13.80;;;;;;;11.36;100.00;102532.19;5292566;27;20557;-76
2024/02/04 02:11:01;;;;;;;31.30;13.57;;;;;;;11.36;100.00;102522.31;5299606;27;20031;-76
2024/02/04 02:13:54;;;;;;;37.22;14.35;;;;;;;11.39;100.00;102522.00;5285161;27;20497;-76
2024/02/04 02:16:27;;;;;;;38.58;15.23;;;;;;;11.35;100.00;102517.91;5298584;27;20400;-76
2024/02/04 02:19:25;;;;;;;39.95;15.02;;;;;;;11.40;100.00;102530.97;5292295;27;20035;-77
2024/02/04 02:22:06;;;;;;;44.60;15.23;;;;;;;11.38;100.00;102525.69;5281213;28;20031;-78
2024/02/04 02:24:51;;;;;;;44.00;15.90;;;;;;;11.45;100.00;102525.19;5296856;27;21383;-78
2024/02/04 02:27:21;;;;;;;44.28;15.45;;;;;;;11.40;100.00;102529.13;5303051;27;20086;-76
2024/02/04 02:29:52;;;;;;;40.75;15.30;;;;;;;11.41;100.00;102524.59;5300210;27;20019;-76
2024/02/04 02:32:37;;;;;;;;;;;;;;;11.46;100.00;102525.06;5293250;27;20110;-77
2024/02/04 02:35:28;;;;;;;48.40;15.80;;;;;;;11.43;100.00;102519.09;5292846;27;19915;-78
2024/02/04 02:38:15;;;;;;;47.78;16.48;;;;;;;11.45;100.00;102514.44;5295139;27;20019;-77
2024/02/04 02:40:51;;;;;;;42.25;16.63;;;;;;;11.46;100.00;102516.16;5297615;27;20493;-76
2024/02/04 02:43:23;;;;;;;43.53;16.67;;;;;;;11.43;100.00;102514.56;5294431;27;20045;-76
2024/02/04 02:45:53;;;;;;;58.60;18.00;;;;;;;11.45;100.00;102519.81;5289278;27;20380;-76
2024/02/04 02:48:24;;;;;;;46.25;16.33;;;;;;;11.43;100.00;102530.69;5299024;27;20027;-76
2024/02/04 02:50:55;;;;;;;46.45;17.77;;;;;;;11.49;100.00;102526.63;5294790;27;20114;-76
2024/02/04 02:53:25;;;;;;;47.42;17.92;;;;;;;11.44;100.00;102524.31;5288365;27;20024;-77
2024/02/04 02:55:56;;;;;;;49.28;17.15;;;;;;;11.54;100.00;102535.13;5295158;27;20080;-77
2024/02/04 02:58:27;;;;;;;53.20;17.55;;;;;;;11.55;100.00;102516.22;5287208;27;20020;-79
2024/02/04 03:01:06;;;;;;;49.80;18.67;;;;;;;11.46;100.00;102505.41;5292380;27;20035;-76
2024/02/04 03:03:37;;;;;;;54.40;17.10;;;;;;;11.48;100.00;102506.94;5291317;27;20050;-79
2024/02/04 03:06:08;;;;;;;48.10;17.95;;;;;;;11.54;100.00;102514.47;5291601;27;20076;-77
2024/02/04 03:08:38;;;;;;;48.92;16.63;;;;;;;11.48;100.00;102504.25;5295527;27;20058;-76
2024/02/04 03:11:09;;;;;;;39.22;17.20;;;;;;;11.53;100.00;102504.72;5296686;27;20046;-79
2024/02/04 03:13:40;;;;;;;45.17;17.50;;;;;;;11.53;100.00;102506.56;5292115;27;20019;-77
2024/02/04 03:16:11;;;;;;;45.33;16.13;;;;;;;11.49;100.00;102503.28;5303097;27;20106;-77
2024/02/04 03:18:42;;;;;;;45.90;16.45;;;;;;;11.54;100.00;102509.09;5296919;27;20034;-77
2024/02/04 03:21:15;;;;;;;41.97;16.17;;;;;;;11.58;100.00;102501.63;5297977;27;20035;-76
2024/02/04 03:23:46;;;;;;;44.00;16.42;;;;;;;11.57;100.00;102494.56;5285585;28;20023;-77
2024/02/04 03:26:19;;;;;;;39.22;15.50;;;;;;;11.64;100.00;102498.41;5296598;27;20035;-76
2024/02/04 03:28:49;;;;;;;50.65;16.73;;;;;;;11.60;100.00;102487.09;5286703;27;20024;-76
2024/02/04 03:31:21;;;;;;;39.15;17.27;;;;;;;11.62;100.00;102485.13;5293967;27;20073;-78
2024/02/04 03:33:51;;;;;;;36.67;17.27;;;;;;;11.60;100.00;102480.88;5288954;27;20083;-77
2024/02/04 03:36:24;;;;;;;49.10;18.35;;;;;;;11.55;100.00;102497.41;5290600;27;20035;-79
2024/02/04 03:38:54;;;;;;;44.55;16.02;;;;;;;11.62;100.00;102495.88;5289518;27;20055;-79
2024/02/04 03:41:25;;;;;;;53.22;16.83;;;;;;;11.66;100.00;102491.09;5290537;27;20107;-77
2024/02/04 03:43:55;;;;;;;36.90;15.00;;;;;;;11.56;100.00;102485.66;5284631;28;20027;-76
2024/02/04 03:46:26;;;;;;;39.90;14.40;;;;;;;11.65;100.00;102490.25;5295491;27;20026;-76
2024/02/04 03:48:56;;;;;;;43.80;15.15;;;;;;;11.61;100.00;102483.41;5297392;27;20072;-78
2024/02/04 03:51:27;;;;;;;35.47;15.35;;;;;;;11.64;100.00;102491.19;5292066;27;20072;-76
2024/02/04 03:53:57;;;;;;;42.78;15.50;;;;;;;11.57;100.00;102499.94;5293507;27;20023;-76
2024/02/04 03:56:28;;;;;;;36.90;14.52;;;;;;;11.63;100.00;102500.25;5291758;27;20080;-77
2024/02/04 03:58:58;;;;;;;44.08;14.88;;;;;;;11.55;100.00;102502.78;5287638;28;20389;-79
2024/02/04 04:01:29;;;;;;;35.13;14.75;;;;;;;11.54;100.00;102497.50;5294069;27;20080;-76
2024/02/04 04:03:59;;;;;;;37.42;13.45;;;;;;;11.64;100.00;102510.00;5289885;28;20122;-77
2024/02/04 04:06:30;;;;;;;33.30;13.25;;;;;;;11.62;100.00;102501.25;5294958;28;20027;-76
2024/02/04 04:09:01;;;;;;;33.15;13.43;;;;;;;11.67;100.00;102493.63;5297805;28;20023;-77
2024/02/04 04:11:32;;;;;;;30.58;13.05;;;;;;;11.65;100.00;102498.31;5286089;27;20504;-77
2024/02/04 04:14:02;;;;;;;31.33;12.13;;;;;;;11.61;100.00;102496.00;5289052;28;20062;-78
2024/02/04 04:16:33;;;;;;;24.30;11.63;;;;;;;11.52;100.00;102500.34;5290614;27;20024;-77
2024/02/04 04:19:04;;;;;;;29.80;11.10;;;;;;;11.51;100.00;102487.88;5288132;28;20031;-78
2024/02/04 04:21:35;;;;;;;30.70;11.00;;;;;;;11.54;100.00;102494.81;5290450;28;20016;-77
2024/02/04 04:24:06;;;;;;;24.58;10.82;;;;;;;11.57;100.00;102492.72;5285323;27;20028;-78
2024/02/04 04:26:37;;;;;;;23.58;9.90;;;;;;;11.50;100.00;102491.56;5294380;28;20034;-80
2024/02/04 04:29:07;;;;;;;23.80;9.27;;;;;;;11.49;100.00;102486.28;5289185;27;20023;-77
2024/02/04 04:31:38;;;;;;;24.73;10.55;;;;;;;11.47;100.00;102481.06;5289303;28;20073;-76
2024/02/04 04:34:08;;;;;;;23.38;9.50;;;;;;;11.45;100.00;102488.41;5284722;28;20035;-78
2024/02/04 04:36:39;;;;;;;21.65;9.52;;;;;;;11.47;100.00;102489.13;5287204;28;20020;-79
2024/02/04 04:39:09;;;;;;;24.70;9.52;;;;;;;11.41;100.00;102490.50;5300418;27;20015;-77
2024/02/04 04:41:42;;;;;;;28.42;10.35;;;;;;;11.43;100.00;102493.06;5292164;28;20019;-77
2024/02/04 04:44:12;;;;;;;26.25;10.88;;;;;;;11.40;100.00;102488.81;5286644;27;20023;-76
2024/02/04 04:46:43;;;;;;;22.50;9.93;;;;;;;11.38;100.00;102492.59;5290183;27;20018;-77
2024/02/04 04:49:14;;;;;;;31.92;11.13;;;;;;;11.45;100.00;102490.25;5291128;27;20019;-76
2024/02/04 04:51:46;;;;;;;27.77;10.15;;;;;;;11.37;100.00;102485.53;5289637;27;20027;-76
2024/02/04 04:54:17;;;;;;;24.90;10.48;;;;;;;11.39;100.00;102478.19;5298980;27;20642;-76
2024/02/04 04:56:47;;;;;;;28.80;10.05;;;;;;;11.40;100.00;102469.16;5292765;27;20031;-78
2024/02/04 04:59:18;;;;;;;24.13;9.85;;;;;;;11.41;100.00;102468.16;5287720;28;20027;-76
2024/02/04 05:01:49;;;;;;;22.40;9.18;;;;;;;11.43;100.00;102463.50;5287787;28;20019;-76
2024/02/04 05:04:21;;;;;;;22.15;9.13;;;;;;;11.43;100.00;102446.53;5292723;27;20045;-78
2024/02/04 05:06:51;;;;;;;25.05;10.55;;;;;;;11.38;100.00;102442.41;5289782;27;20024;-74
2024/02/04 05:09:22;;;;;;;25.95;9.15;;;;;;;11.36;100.00;102455.13;5292024;27;20054;-75
2024/02/04 05:11:52;;;;;;;24.98;10.77;;;;;;;11.36;100.00;102449.75;5290134;27;20043;-77
2024/02/04 05:14:23;;;;;;;30.90;11.50;;;;;;;11.35;100.00;102463.31;5291414;27;20620;-76
2024/02/04 05:16:53;;;;;;;27.65;10.88;;;;;;;11.34;100.00;102475.03;5287539;28;20023;-76
2024/02/04 05:19:24;;;;;;;28.30;10.27;;;;;;;11.33;100.00;102474.19;5287325;28;20496;-78
2024/02/04 05:21:54;;;;;;;24.80;10.15;;;;;;;11.35;100.00;102466.00;5294237;27;20016;-76
2024/02/04 05:24:25;;;;;;;32.70;11.07;;;;;;;11.28;100.00;102464.81;5303550;27;20044;-76
2024/02/04 05:26:55;;;;;;;26.13;9.90;;;;;;;11.31;100.00;102464.56;5292887;27;20047;-76
2024/02/04 05:29:26;;;;;;;26.50;10.07;;;;;;;11.33;100.00;102462.59;5293414;27;20023;-78
2024/02/04 05:31:56;;;;;;;24.92;11.02;;;;;;;11.34;100.00;102459.75;5287398;27;20391;-77
2024/02/04 05:34:27;;;;;;;27.15;10.55;;;;;;;11.30;100.00;102460.19;5291813;27;20028;-77
2024/02/04 05:36:57;;;;;;;26.67;10.45;;;;;;;11.27;100.00;102455.06;5284306;28;20050;-76
2024/02/04 05:39:28;;;;;;;24.02;10.13;;;;;;;11.28;100.00;102459.44;5284502;28;20027;-77
2024/02/04 05:41:58;;;;;;;33.80;10.93;;;;;;;11.30;100.00;102457.50;5291486;27;20023;-77
2024/02/04 05:44:29;;;;;;;25.58;10.57;;;;;;;11.30;100.00;102463.72;5290969;27;20062;-76
2024/02/04 05:47:00;;;;;;;28.58;10.23;;;;;;;11.34;100.00;102456.22;5287333;28;20036;-78
2024/02/04 05:49:31;;;;;;;29.70;10.85;;;;;;;11.38;100.00;102449.59;5286449;28;20023;-76
2024/02/04 05:52:02;;;;;;;29.23;11.60;;;;;;;11.33;100.00;102452.69;5286657;28;20024;-76
2024/02/04 05:54:36;;;;;;;29.55;10.13;;;;;;;11.30;100.00;102468.25;5287975;27;20023;-76
2024/02/04 05:57:07;;;;;;;28.98;10.90;;;;;;;11.43;100.00;102468.03;5294441;27;20026;-77
2024/02/04 05:59:39;;;;;;;24.65;9.45;;;;;;;11.34;100.00;102456.22;5290256;27;20438;-76
2024/02/04 06:02:09;;;;;;;24.05;10.05;;;;;;;11.38;100.00;102471.09;5286613;27;20020;-77
2024/02/04 06:04:40;;;;;;;32.45;10.52;;;;;;;11.41;100.00;102460.94;5288733;27;20031;-76
2024/02/04 06:07:10;;;;;;;26.42;10.10;;;;;;;11.36;100.00;102451.59;5298543;27;20476;-76
2024/02/04 06:09:41;;;;;;;26.00;10.65;;;;;;;11.40;100.00;102450.34;5295286;27;20032;-80
2024/02/04 06:12:11;;;;;;;30.08;10.40;;;;;;;11.46;100.00;102462.41;5286565;27;20464;-77
2024/02/04 06:14:42;;;;;;;28.17;10.77;;;;;;;11.44;100.00;102454.44;5286617;27;20024;-77
2024/02/04 06:17:12;;;;;;;29.80;10.45;;;;;;;11.46;100.00;102462.41;5293102;27;20541;-76
2024/02/04 06:19:43;;;;;;;25.45;11.73;;;;;;;11.48;100.00;102450.50;5288783;27;20129;-76
2024/02/04 06:22:15;;;;;;;28.38;10.82;;;;;;;11.53;100.00;102444.75;5294309;27;20020;-78
2024/02/04 06:24:45;;;;;;;38.42;13.13;;;;;;;11.41;100.00;102449.34;5290732;27;20781;-79
2024/02/04 06:27:15;;;;;;;78.35;34.70;;;;;;;11.39;100.00;102462.06;5297970;27;20023;-77
2024/02/04 06:29:46;;;;;;;37.20;13.18;;;;;;;11.39;100.00;102446.78;5286327;27;20084;-77
2024/02/04 06:32:20;;;;;;;87.32;42.97;;;;;;;11.38;100.00;102457.66;5285742;27;20023;-77
2024/02/04 06:34:51;;;;;;;52.17;20.45;;;;;;;11.33;100.00;102449.16;5285134;27;20026;-77
2024/02/04 06:37:21;;;;;;;81.93;37.47;;;;;;;11.30;100.00;102457.50;5290243;27;20428;-77
2024/02/04 06:39:53;;;;;;;288.35;149.50;;;;;;;11.28;100.00;102449.53;5286848;27;20062;-79
2024/02/04 06:42:23;;;;;;;92.65;45.20;;;;;;;11.35;100.00;102460.63;5298097;27;20686;-76
2024/02/04 06:44:54;;;;;;;45.90;20.75;;;;;;;11.31;100.00;102460.03;5291537;27;20145;-77
2024/02/04 06:47:24;;;;;;;64.50;31.17;;;;;;;11.34;100.00;102453.53;5287658;27;20030;-78
2024/02/04 06:49:54;;;;;;;80.35;38.53;;;;;;;11.33;100.00;102462.59;5292194;27;20625;-76
2024/02/04 06:52:25;;;;;;;75.72;42.50;;;;;;;11.36;100.00;102456.97;5296621;27;20022;-77
2024/02/04 06:54:55;;;;;;;33.70;14.02;;;;;;;11.30;100.00;102455.66;5291360;27;20020;-79
2024/02/04 06:57:26;;;;;;;56.85;22.75;;;;;;;11.28;100.00;102444.16;5288790;27;20019;-77
2024/02/04 06:59:56;;;;;;;28.77;12.45;;;;;;;11.32;100.00;102450.16;5289555;27;20030;-77
2024/02/04 07:02:27;;;;;;;28.17;12.25;;;;;;;11.33;100.00;102443.78;5292938;27;20019;-76
2024/02/04 07:04:57;;;;;;;35.17;14.32;;;;;;;11.30;100.00;102442.22;5289562;27;20076;-77
2024/02/04 07:07:28;;;;;;;36.50;15.15;;;;;;;11.30;100.00;102449.44;5293259;27;20022;-78
2024/02/04 07:09:59;;;;;;;37.67;17.23;;;;;;;11.33;100.00;102446.47;5277572;28;20031;-77
2024/02/04 07:12:30;;;;;;;35.78;13.40;;;;;;;11.33;100.00;102438.41;5281701;27;20046;-79
2024/02/04 07:15:00;;;;;;;36.45;12.15;;;;;;;11.26;100.00;102440.78;5291219;27;20031;-76
2024/02/04 07:17:31;;;;;;;32.90;11.70;;;;;;;11.29;100.00;102440.50;5283775;27;20491;-76
2024/02/04 07:20:02;;;;;;;28.90;10.70;;;;;;;11.36;100.00;102439.00;5284274;27;20177;-76
2024/02/04 07:22:34;;;;;;;32.15;11.88;;;;;;;11.38;100.00;102445.09;5291214;27;20026;-76
2024/02/04 07:25:05;;;;;;;29.83;11.77;;;;;;;11.14;100.00;102437.31;5284647;27;20034;-78
2024/02/04 07:27:36;;;;;;;35.05;12.63;;;;;;;11.32;100.00;102444.78;5283745;28;20023;-76
2024/02/04 07:30:07;;;;;;;48.47;21.38;;;;;;;11.29;100.00;102447.72;5289170;27;20023;-78
2024/02/04 07:32:37;;;;;;;36.50;15.07;;;;;;;11.31;100.00;102453.81;5287741;27;20020;-76
2024/02/04 07:35:08;;;;;;;31.52;10.95;;;;;;;11.27;100.00;102434.41;5282734;28;20046;-76
2024/02/04 07:37:39;;;;;;;31.42;12.45;;;;;;;11.29;100.00;102428.91;5286229;27;20023;-76
2024/02/04 07:40:10;;;;;;;29.17;12.27;;;;;;;11.32;100.00;102445.63;5287376;27;20051;-78
2024/02/04 07:42:40;;;;;;;30.90;13.25;;;;;;;11.33;100.00;102449.16;5290060;27;20024;-76
2024/02/04 07:45:11;;;;;;;28.27;12.63;;;;;;;11.36;100.00;102446.22;5287292;27;20119;-78
2024/02/04 07:47:41;;;;;;;32.30;14.77;;;;;;;11.37;100.00;102447.91;5286456;27;20030;-76
2024/02/04 07:50:12;;;;;;;29.90;11.77;;;;;;;11.41;100.00;102444.81;5289424;27;20373;-76
2024/02/04 07:52:43;;;;;;;29.13;12.68;;;;;;;11.47;100.00;102447.97;5290087;28;20031;-78
2024/02/04 07:55:13;;;;;;;35.65;12.60;;;;;;;11.39;100.00;102445.94;5284454;28;20049;-76
2024/02/04 07:57:44;;;;;;;29.88;13.77;;;;;;;11.43;100.00;102441.16;5287892;27;20039;-76
2024/02/04 08:00:15;;;;;;;34.53;12.98;;;;;;;11.45;100.00;102442.75;5290152;28;20087;-76
2024/02/04 08:02:45;;;;;;;22.73;10.70;;;;;;;11.50;100.00;102445.03;5290759;28;20027;-77
2024/02/04 08:05:16;;;;;;;24.52;11.18;;;;;;;11.55;100.00;102440.94;5288002;28;20393;-77
2024/02/04 08:07:46;;;;;;;25.75;9.55;;;;;;;11.50;100.00;102431.59;5297480;28;20034;-76
2024/02/04 08:10:17;;;;;;;33.15;12.02;;;;;;;11.59;100.00;102434.28;5286585;28;20016;-76
2024/02/04 08:12:50;;;;;;;29.38;10.25;;;;;;;11.57;100.00;102435.44;5290366;28;20031;-76
2024/02/04 08:15:21;;;;;;;27.17;9.45;;;;;;;11.58;100.00;102413.78;5286037;28;20552;-77
2024/02/04 08:17:51;;;;;;;29.08;10.25;;;;;;;11.54;100.00;102412.34;5293123;28;20027;-78
2024/02/04 08:20:22;;;;;;;26.35;10.23;;;;;;;11.58;100.00;102413.78;5292516;27;20023;-76
2024/02/04 08:22:54;;;;;;;29.55;10.38;;;;;;;11.57;100.00;102411.25;5294154;27;20019;-78
2024/02/04 08:25:24;;;;;;;28.13;10.55;;;;;;;11.57;100.00;102408.56;5294915;27;20110;-78
2024/02/04 08:27:55;;;;;;;30.25;9.77;;;;;;;11.61;100.00;102399.25;5299320;27;20023;-77
2024/02/04 08:30:25;;;;;;;25.88;10.00;;;;;;;11.67;100.00;102402.22;5301426;27;20019;-77
2024/02/04 08:32:57;;;;;;;26.50;9.57;;;;;;;11.66;100.00;102405.91;5296543;27;20035;-77
2024/02/04 08:35:27;;;;;;;24.95;10.30;;;;;;;11.67;100.00;102406.75;5299145;27;20031;-76
2024/02/04 08:37:57;;;;;;;45.00;16.90;;;;;;;11.72;100.00;102419.78;5291835;27;20038;-79
2024/02/04 08:40:28;;;;;;;33.22;12.38;;;;;;;11.75;100.00;102435.66;5294713;27;20031;-79
2024/02/04 08:42:58;;;;;;;26.80;10.20;;;;;;;11.68;100.00;102451.47;5292019;27;20038;-76
2024/02/04 08:45:29;;;;;;;27.83;11.07;;;;;;;11.74;100.00;102455.44;5288983;27;20027;-76
2024/02/04 08:47:59;;;;;;;28.58;11.40;;;;;;;11.76;100.00;102456.19;5298071;27;20035;-76
2024/02/04 08:50:30;;;;;;;25.75;10.95;;;;;;;11.76;100.00;102450.81;5292111;27;20019;-78
2024/02/04 08:53:00;;;;;;;26.40;10.70;;;;;;;11.75;100.00;102444.59;5295059;27;20034;-76
2024/02/04 08:55:31;;;;;;;21.42;9.98;;;;;;;11.68;100.00;102441.56;5291265;27;20059;-76
2024/02/04 08:58:01;;;;;;;23.17;9.10;;;;;;;11.68;100.00;102433.50;5293436;27;20031;-76
2024/02/04 09:00:32;;;;;;;30.75;12.07;;;;;;;11.77;100.00;102441.75;5290099;27;20103;-78
2024/02/04 09:03:03;;;;;;;24.27;8.48;;;;;;;11.74;100.00;102436.63;5295536;27;20031;-77
2024/02/04 09:05:33;;;;;;;18.70;10.05;;;;;;;11.87;100.00;102440.81;5292808;27;20018;-76
2024/02/04 09:08:04;;;;;;;18.70;8.25;;;;;;;11.87;100.00;102437.28;5293665;27;20111;-76
2024/02/04 09:10:35;;;;;;;20.23;7.78;;;;;;;11.89;100.00;102451.44;5291449;27;20027;-78
2024/02/04 09:13:05;;;;;;;23.23;10.65;;;;;;;11.83;100.00;102452.00;5292876;27;20031;-77
2024/02/04 09:15:36;;;;;;;19.48;8.60;;;;;;;11.78;100.00;102454.19;5287181;27;20741;-78
2024/02/04 09:18:06;;;;;;;21.45;7.60;;;;;;;11.83;100.00;102457.38;5287885;27;20038;-76
2024/02/04 09:20:37;;;;;;;15.32;6.85;;;;;;;11.91;100.00;102468.31;5288410;27;20051;-79
2024/02/04 09:23:07;;;;;;;17.90;7.20;;;;;;;11.92;100.00;102451.19;5295488;27;20031;-76
2024/02/04 09:25:38;;;;;;;22.83;8.27;;;;;;;11.98;100.00;102442.56;5289890;27;20052;-76
2024/02/04 09:28:08;;;;;;;20.23;7.10;;;;;;;12.01;100.00;102439.59;5289656;27;20042;-76
2024/02/04 09:30:39;;;;;;;24.45;7.03;;;;;;;11.95;100.00;102445.53;5295332;27;20019;-79
2024/02/04 09:33:09;;;;;;;20.52;7.72;;;;;;;12.01;100.00;102446.81;5293162;27;20054;-80
2024/02/04 09:35:40;;;;;;;26.50;7.57;;;;;;;11.93;100.00;102437.59;5292591;27;20051;-76
2024/02/04 09:38:11;;;;;;;21.50;12.57;;;;;;;11.93;100.00;102424.13;5295494;27;20019;-77
2024/02/04 09:40:42;;;;;;;19.15;7.82;;;;;;;11.87;100.00;102429.22;5289907;27;20099;-76
2024/02/04 09:43:13;;;;;;;20.77;7.00;;;;;;;11.88;100.00;102423.69;5293688;27;20110;-76
2024/02/04 09:45:43;;;;;;;19.38;6.93;;;;;;;11.95;100.00;102433.91;5288602;27;20102;-75
2024/02/04 09:48:18;;;;;;;18.35;7.80;;;;;;;11.98;100.00;102439.03;5289338;27;20387;-76
2024/02/04 09:50:50;;;;;;;18.25;6.10;;;;;;;11.87;100.00;102424.69;5294524;27;20383;-79
2024/02/04 09:53:28;;;;;;;19.75;8.55;;;;;;;11.96;100.00;102416.81;5291922;27;20077;-78
2024/02/04 09:56:01;;;;;;;13.30;6.97;;;;;;;12.07;100.00;102424.75;5292616;27;20080;-76
2024/02/04 09:58:31;;;;;;;20.50;6.78;;;;;;;12.00;100.00;102424.47;5292090;27;21112;-76
2024/02/04 10:01:04;;;;;;;10.00;5.70;;;;;;;11.96;100.00;102432.94;5289536;27;20031;-78
2024/02/04 10:03:34;;;;;;;12.52;5.00;;;;;;;11.84;100.00;102434.84;5287888;27;20485;-79
2024/02/04 10:06:05;;;;;;;12.50;6.32;;;;;;;11.78;100.00;102444.28;5290423;27;20027;-76
2024/02/04 10:08:37;;;;;;;15.05;5.00;;;;;;;11.83;100.00;102438.53;5290561;27;20508;-80
2024/02/04 10:11:08;;;;;;;8.93;4.82;;;;;;;11.89;100.00;102452.28;5294647;27;20451;-79
2024/02/04 10:13:47;;;;;;;15.95;6.07;;;;;;;11.91;100.00;102427.97;5289077;27;20469;-77
2024/02/04 10:16:17;;;;;;;10.88;4.18;;;;;;;11.92;100.00;102419.75;5296579;27;20088;-79
2024/02/04 10:18:49;;;;;;;13.02;4.60;;;;;;;11.96;100.00;102417.66;5285464;27;20473;-78
2024/02/04 10:21:21;;;;;;;20.48;6.15;;;;;;;12.01;100.00;102419.94;5289798;27;20043;-78
2024/02/04 10:23:52;;;;;;;47.28;28.17;;;;;;;11.96;100.00;102412.28;5287710;27;20024;-76
2024/02/04 10:26:22;;;;;;;14.07;6.38;;;;;;;12.02;100.00;102402.78;5293160;27;20018;-77
2024/02/04 10:28:53;;;;;;;10.13;4.80;;;;;;;12.01;100.00;102422.63;5286554;27;20034;-78
2024/02/04 10:31:26;;;;;;;14.98;7.30;;;;;;;12.09;100.00;102426.31;5290973;27;20050;-77
2024/02/04 10:33:56;;;;;;;14.27;5.53;;;;;;;12.14;100.00;102424.03;5290294;27;20040;-79
2024/02/04 10:36:29;;;;;;;13.30;4.88;;;;;;;12.09;100.00;102422.75;5291463;27;20047;-79
2024/02/04 10:39:00;;;;;;;12.95;6.03;;;;;;;12.15;100.00;102420.38;5287874;27;20132;-76
2024/02/04 10:41:33;;;;;;;9.50;4.75;;;;;;;12.26;100.00;102424.81;5285506;27;20059;-79
2024/02/04 10:44:05;;;;;;;11.45;5.03;;;;;;;12.33;100.00;102431.31;5285927;27;20024;-76
2024/02/04 10:46:38;;;;;;;12.20;4.72;;;;;;;12.39;100.00;102429.91;5285152;27;20019;-76
2024/02/04 10:49:14;;;;;;;10.20;4.43;;;;;;;12.52;100.00;102422.41;5295272;27;20094;-76
2024/02/04 10:51:45;;;;;;;9.27;4.40;;;;;;;12.54;100.00;102422.25;5289264;27;20573;-79
2024/02/04 10:54:17;;;;;;;15.13;4.47;;;;;;;12.55;100.00;102432.91;5291817;27;20027;-76
2024/02/04 10:56:56;;;;;;;13.13;4.15;;;;;;;12.54;100.00;102423.13;5291792;27;20043;-76
2024/02/04 10:59:29;;;;;;;9.63;3.78;;;;;;;12.60;100.00;102411.81;5289355;27;20031;-77
2024/02/04 11:02:00;;;;;;;12.85;4.20;;;;;;;12.69;100.00;102415.47;5288108;27;20028;-76
2024/02/04 11:04:33;;;;;;;14.10;4.38;;;;;;;12.70;100.00;102418.03;5289976;27;20437;-77
2024/02/04 11:07:05;;;;;;;9.32;4.57;;;;;;;12.74;100.00;102412.34;5299079;27;20333;-76
2024/02/04 11:09:37;;;;;;;19.02;4.68;;;;;;;12.69;100.00;102416.31;5283360;27;20087;-74
2024/02/04 11:12:14;;;;;;;13.48;4.78;;;;;;;12.72;100.00;102408.97;5290190;27;20027;-75
2024/02/04 11:14:51;;;;;;;10.25;4.53;;;;;;;12.72;100.00;102408.97;5289796;27;20027;-75
2024/02/04 11:18:00;;;;;;;9.73;4.90;;;;;;;12.70;100.00;102423.44;5292992;27;20039;-75
2024/02/04 11:20:37;;;;;;;10.32;4.10;;;;;;;12.63;100.00;102411.50;5287043;27;20370;-74
2024/02/04 11:23:36;;;;;;;17.15;7.82;;;;;;;12.69;100.00;102407.38;5286666;27;20028;-77